createdAt,value
2018-04-10T00:00:04.978Z,4.50
2018-04-10T00:02:34.772Z,4.20
2018-04-10T00:05:04.604Z,5.17
2018-04-10T00:07:34.395Z,4.37
2018-04-10T00:10:04.341Z,4.40
2018-04-10T00:12:34.111Z,3.67
2018-04-10T00:15:04.039Z,4.20
2018-04-10T00:17:33.821Z,3.70
2018-04-10T00:20:03.830Z,4.23
2018-04-10T00:22:33.677Z,3.50
2018-04-10T00:25:03.435Z,6.63
2018-04-10T00:27:33.206Z,5.03
2018-04-10T00:30:03.233Z,5.40
2018-04-10T00:32:33.016Z,6.20
2018-04-10T00:35:02.779Z,5.70
2018-04-10T00:37:32.567Z,5.33
2018-04-10T00:40:02.788Z,6.37
2018-04-10T00:42:32.567Z,5.50
2018-04-10T00:45:02.374Z,6.20
2018-04-10T00:47:32.201Z,6.53
2018-04-10T00:50:02.345Z,7.30
2018-04-10T00:52:32.095Z,7.83
2018-04-10T00:55:01.963Z,8.27
2018-04-10T00:57:31.789Z,7.40
2018-04-10T01:00:01.708Z,7.43
2018-04-10T01:02:31.478Z,6.70
2018-04-10T01:05:01.247Z,6.10
2018-04-10T01:07:31.119Z,6.30
2018-04-10T01:10:00.883Z,6.87
2018-04-10T01:12:30.645Z,9.03
2018-04-10T01:15:00.464Z,6.63
2018-04-10T01:17:30.259Z,6.10
2018-04-10T01:20:00.027Z,5.77
2018-04-10T01:22:29.793Z,5.83
2018-04-10T01:24:59.552Z,5.30
2018-04-10T01:27:29.307Z,5.93
2018-04-10T01:29:59.095Z,6.30
2018-04-10T01:32:28.872Z,6.53
2018-04-10T01:34:58.666Z,7.00
2018-04-10T01:37:28.465Z,6.27
2018-04-10T01:39:58.340Z,6.43
2018-04-10T01:42:28.108Z,6.70
2018-04-10T01:44:57.884Z,6.70
2018-04-10T01:47:27.696Z,9.07
2018-04-10T01:49:57.599Z,7.77
2018-04-10T01:52:27.421Z,7.10
2018-04-10T01:54:57.227Z,7.20
2018-04-10T01:57:26.995Z,6.47
2018-04-10T01:59:56.827Z,6.90
2018-04-10T02:02:26.571Z,7.50
2018-04-10T02:04:56.339Z,7.70
2018-04-10T02:07:26.108Z,5.70
2018-04-10T02:21:15.840Z,8.27
2018-04-10T02:23:57.346Z,7.70
2018-04-10T02:26:27.143Z,8.60
2018-04-10T02:28:56.924Z,8.10
2018-04-10T02:31:26.701Z,8.90
2018-04-10T02:33:56.500Z,8.47
2018-04-10T02:36:26.254Z,9.03
2018-04-10T02:38:56.112Z,8.97
2018-04-10T02:41:25.992Z,9.37
2018-04-10T02:43:55.839Z,9.83
2018-04-10T02:46:25.598Z,10.50
2018-04-10T02:48:55.400Z,11.03
2018-04-10T02:51:25.190Z,10.23
2018-04-10T02:53:54.982Z,9.47
2018-04-10T02:56:24.794Z,9.40
2018-04-10T02:58:54.522Z,9.17
2018-04-10T03:01:24.313Z,8.97
2018-04-10T03:03:54.122Z,8.53
2018-04-10T03:06:23.908Z,10.53
2018-04-10T03:08:53.754Z,8.07
2018-04-10T03:11:23.506Z,9.00
2018-04-10T03:13:53.376Z,8.87
2018-04-10T03:16:23.133Z,8.93
2018-04-10T03:18:52.932Z,9.20
2018-04-10T03:21:22.700Z,8.17
2018-04-10T03:23:52.516Z,8.80
2018-04-10T03:26:22.324Z,11.40
2018-04-10T03:28:52.111Z,8.10
2018-04-10T03:31:21.867Z,8.17
2018-04-10T03:33:51.621Z,8.17
2018-04-10T03:36:21.418Z,7.97
2018-04-10T03:38:51.204Z,7.63
2018-04-10T03:41:20.996Z,8.27
2018-04-10T03:43:50.792Z,8.07
2018-04-10T03:46:20.565Z,8.23
2018-04-10T03:48:50.339Z,7.90
2018-04-10T03:51:20.100Z,7.93
2018-04-10T03:53:49.897Z,8.20
2018-04-10T03:56:19.699Z,7.63
2018-04-10T03:58:49.472Z,8.10
2018-04-10T04:01:19.243Z,8.17
2018-04-10T04:03:49.020Z,8.53
2018-04-10T04:06:19.119Z,9.10
2018-04-10T04:08:49.132Z,8.47
2018-04-10T04:11:18.884Z,9.83
2018-04-10T04:13:48.663Z,8.97
2018-04-10T04:16:24.445Z,9.90
2018-04-10T04:19:00.215Z,9.43
2018-04-10T04:21:35.956Z,10.43
2018-04-10T04:24:05.727Z,10.90
2018-04-10T04:26:35.621Z,9.50
2018-04-10T04:29:05.391Z,8.90
2018-04-10T04:31:35.313Z,8.83
2018-04-10T04:34:05.092Z,9.37
2018-04-10T04:36:34.869Z,9.07
2018-04-10T04:39:04.642Z,11.33
2018-04-10T04:41:34.416Z,9.67
2018-04-10T04:44:04.219Z,8.77
2018-04-10T04:46:33.991Z,9.10
2018-04-10T04:49:03.787Z,11.37
2018-04-10T04:51:33.580Z,9.40
2018-04-10T04:54:03.382Z,9.43
2018-04-10T04:56:33.160Z,9.80
2018-04-10T04:59:02.948Z,9.33
2018-04-10T05:01:32.720Z,8.60
2018-04-10T05:04:02.492Z,9.37
2018-04-10T05:06:32.256Z,8.30
2018-04-10T05:09:02.060Z,8.40
2018-04-10T05:11:31.827Z,7.30
2018-04-10T05:14:01.651Z,9.00
2018-04-10T05:16:31.543Z,7.07
2018-04-10T05:19:01.362Z,7.40
2018-04-10T05:21:31.172Z,7.23
2018-04-10T05:24:01.000Z,6.97
2018-04-10T05:26:30.800Z,7.10
2018-04-10T05:29:00.571Z,8.00
2018-04-10T05:31:30.421Z,7.60
2018-04-10T05:34:00.208Z,7.77
2018-04-10T05:36:29.994Z,7.10
2018-04-10T05:38:59.757Z,7.70
2018-04-10T05:41:29.580Z,7.47
2018-04-10T05:43:59.391Z,7.00
2018-04-10T05:46:29.204Z,7.10
2018-04-10T05:48:58.953Z,7.83
2018-04-10T05:51:28.756Z,9.23
2018-04-10T05:53:58.539Z,12.00
2018-04-10T05:56:28.335Z,10.00
2018-04-10T05:58:58.101Z,8.90
2018-04-10T06:01:27.871Z,9.47
2018-04-10T06:03:57.713Z,9.10
2018-04-10T06:06:27.452Z,7.60
2018-04-10T06:08:57.287Z,9.37
2018-04-10T06:11:27.079Z,9.40
2018-04-10T06:13:56.836Z,7.57
2018-04-10T06:16:26.632Z,8.43
2018-04-10T06:18:56.392Z,6.47
2018-04-10T06:21:26.580Z,6.77
2018-04-10T06:23:56.319Z,6.13
2018-04-10T06:26:26.095Z,6.97
2018-04-10T06:28:55.864Z,6.10
2018-04-10T06:31:25.667Z,6.87
2018-04-10T06:33:55.412Z,5.87
2018-04-10T06:36:25.366Z,7.50
2018-04-10T06:38:55.134Z,7.60
2018-04-10T06:41:25.053Z,7.87
2018-04-10T06:43:54.821Z,8.70
2018-04-10T06:46:24.596Z,9.57
2018-04-10T06:48:54.344Z,9.57
2018-04-10T06:51:24.131Z,10.33
2018-04-10T06:53:53.887Z,10.50
2018-04-10T06:56:23.764Z,11.90
2018-04-10T06:58:53.637Z,12.50
2018-04-10T07:01:23.423Z,13.20
2018-04-10T07:03:53.300Z,14.50
2018-04-10T07:06:23.066Z,16.10
2018-04-10T07:08:52.884Z,18.30
2018-04-10T07:11:22.659Z,22.37
2018-04-10T07:13:52.512Z,15.87
2018-04-10T07:16:22.276Z,16.07
2018-04-10T07:18:52.060Z,11.63
2018-04-10T07:21:21.841Z,11.20
2018-04-10T07:23:51.635Z,11.33
2018-04-10T07:26:21.417Z,10.40
2018-04-10T07:28:51.204Z,10.20
2018-04-10T07:31:20.990Z,10.50
2018-04-10T07:33:50.812Z,10.93
2018-04-10T07:36:20.581Z,10.67
2018-04-10T07:38:50.415Z,11.37
2018-04-10T07:41:20.186Z,10.83
2018-04-10T07:43:49.967Z,10.27
2018-04-10T07:46:19.739Z,11.27
2018-04-10T07:48:49.520Z,12.43
2018-04-10T07:51:19.287Z,10.30
2018-04-10T07:53:49.098Z,11.67
2018-04-10T07:56:18.856Z,10.97
2018-04-10T07:58:48.646Z,13.53
2018-04-10T08:01:18.429Z,11.77
2018-04-10T08:03:48.195Z,10.87
2018-04-10T08:06:18.003Z,12.27
2018-04-10T08:08:47.866Z,10.97
2018-04-10T08:11:17.619Z,10.63
2018-04-10T08:13:47.484Z,10.90
2018-04-10T08:16:17.304Z,13.03
2018-04-10T08:18:47.071Z,10.60
2018-04-10T08:21:16.839Z,9.00
2018-04-10T08:23:46.626Z,9.37
2018-04-10T08:26:16.397Z,8.87
2018-04-10T08:28:46.222Z,8.90
2018-04-10T08:31:15.992Z,8.37
2018-04-10T08:33:45.771Z,7.93
2018-04-10T08:36:15.596Z,7.20
2018-04-10T08:38:45.375Z,8.13
2018-04-10T08:41:15.152Z,7.37
2018-04-10T08:43:45.025Z,7.37
2018-04-10T08:46:14.806Z,9.13
2018-04-10T08:48:44.578Z,7.80
2018-04-10T08:51:14.357Z,7.17
2018-04-10T08:53:44.120Z,7.87
2018-04-10T08:56:13.981Z,7.80
2018-04-10T08:58:43.788Z,7.57
2018-04-10T09:01:13.556Z,8.40
2018-04-10T09:03:43.411Z,9.10
2018-04-10T09:06:13.180Z,8.00
2018-04-10T09:08:42.944Z,8.47
2018-04-10T09:11:12.754Z,9.07
2018-04-10T09:13:42.508Z,7.90
2018-04-10T09:16:12.403Z,7.37
2018-04-10T09:18:42.137Z,8.40
2018-04-10T09:21:11.928Z,7.97
2018-04-10T09:23:41.712Z,7.40
2018-04-10T09:26:11.525Z,9.57
2018-04-10T09:28:41.269Z,8.17
2018-04-10T09:31:11.051Z,8.80
2018-04-10T09:33:40.803Z,8.70
2018-04-10T09:36:10.588Z,9.43
2018-04-10T09:38:40.328Z,9.00
2018-04-10T09:41:10.144Z,8.63
2018-04-10T09:43:39.913Z,8.80
2018-04-10T09:46:09.723Z,8.77
2018-04-10T09:48:39.464Z,8.27
2018-04-10T09:51:09.325Z,8.70
2018-04-10T09:53:39.091Z,8.67
2018-04-10T09:56:08.963Z,9.20
2018-04-10T09:58:38.763Z,8.40
2018-04-10T10:01:08.551Z,9.10
2018-04-10T10:03:38.392Z,8.80
2018-04-10T10:06:08.175Z,8.53
2018-04-10T10:08:38.024Z,8.57
2018-04-10T10:11:07.783Z,17.97
2018-04-10T10:13:37.564Z,20.90
2018-04-10T10:16:07.342Z,23.43
2018-04-10T10:18:37.114Z,11.33
2018-04-10T10:21:06.967Z,10.83
2018-04-10T10:23:36.783Z,12.50
2018-04-10T10:26:06.555Z,15.20
2018-04-10T10:28:36.413Z,12.67
2018-04-10T10:31:06.176Z,12.73
2018-04-10T10:33:36.014Z,25.63
2018-04-10T10:36:05.783Z,21.70
2018-04-10T10:38:35.639Z,38.27
2018-04-10T10:41:05.463Z,32.73
2018-04-10T10:43:35.258Z,12.87
2018-04-10T10:46:05.050Z,67.33
2018-04-10T10:48:34.831Z,27.03
2018-04-10T10:51:04.609Z,10.60
2018-04-10T10:53:34.387Z,17.63
2018-04-10T10:56:04.223Z,11.00
2018-04-10T10:58:34.008Z,28.03
2018-04-10T11:01:03.899Z,16.50
2018-04-10T11:03:33.626Z,7.03
2018-04-10T11:06:03.399Z,16.37
2018-04-10T11:08:33.191Z,20.87
2018-04-10T11:11:03.006Z,7.77
2018-04-10T11:13:32.769Z,9.50
2018-04-10T11:16:02.747Z,10.83
2018-04-10T11:18:32.540Z,12.63
2018-04-10T11:21:02.443Z,7.60
2018-04-10T11:23:32.218Z,5.30
2018-04-10T11:26:01.968Z,5.60
2018-04-10T11:28:31.787Z,8.73
2018-04-10T11:31:01.595Z,4.27
2018-04-10T11:33:31.408Z,4.47
2018-04-10T11:36:01.211Z,3.57
2018-04-10T11:38:30.974Z,6.03
2018-04-10T11:41:00.750Z,6.43
2018-04-10T11:43:30.491Z,3.47
2018-04-10T11:46:00.263Z,5.23
2018-04-10T11:48:30.022Z,7.67
2018-04-10T11:50:59.880Z,8.20
2018-04-10T11:53:29.647Z,10.20
2018-04-10T11:55:59.424Z,18.87
2018-04-10T11:58:29.185Z,6.40
2018-04-10T12:00:58.959Z,8.47
2018-04-10T12:03:28.727Z,5.27
2018-04-10T12:05:58.502Z,8.00
2018-04-10T12:08:28.292Z,11.80
2018-04-10T12:10:58.159Z,26.60
2018-04-10T12:13:27.915Z,24.10
2018-04-10T12:15:57.798Z,63.50
2018-04-10T12:18:27.548Z,55.83
2018-04-10T12:20:57.432Z,22.97
2018-04-10T12:23:27.188Z,13.00
2018-04-10T12:25:56.968Z,49.80
2018-04-10T12:28:26.750Z,7.40
2018-04-10T12:30:56.530Z,14.73
2018-04-10T12:33:26.408Z,10.13
2018-04-10T12:35:56.176Z,18.87
2018-04-10T12:38:25.925Z,7.27
2018-04-10T12:40:55.722Z,6.90
2018-04-10T12:43:25.503Z,7.37
2018-04-10T12:45:55.339Z,5.67
2018-04-10T12:48:25.108Z,8.77
2018-04-10T12:50:54.889Z,9.90
2018-04-10T12:53:24.665Z,4.93
2018-04-10T12:55:54.486Z,6.57
2018-04-10T12:58:24.253Z,5.50
2018-04-10T13:00:54.024Z,6.60
2018-04-10T13:03:23.920Z,5.00
2018-04-10T13:05:53.726Z,5.70
2018-04-10T13:08:23.490Z,5.30
2018-04-10T13:10:53.349Z,5.30
2018-04-10T13:13:23.122Z,5.13
2018-04-10T13:15:52.869Z,6.33
2018-04-10T13:18:22.649Z,4.90
2018-04-10T13:20:52.402Z,4.57
2018-04-10T13:23:22.199Z,5.47
2018-04-10T13:25:52.191Z,6.23
2018-04-10T13:28:22.016Z,6.30
2018-04-10T13:30:51.837Z,4.80
2018-04-10T13:33:21.631Z,3.90
2018-04-10T13:35:51.790Z,13.17
2018-04-10T13:38:21.596Z,16.10
2018-04-10T13:40:51.353Z,23.83
2018-04-10T13:43:21.173Z,5.83
2018-04-10T13:45:50.922Z,10.90
2018-04-10T13:48:20.719Z,21.07
2018-04-10T13:50:50.503Z,32.97
2018-04-10T13:53:20.282Z,17.53
2018-04-10T13:55:50.420Z,19.87
2018-04-10T13:58:20.211Z,17.13
2018-04-10T14:00:49.980Z,19.30
2018-04-10T14:03:19.806Z,18.40
2018-04-10T14:05:49.571Z,46.40
2018-04-10T14:08:19.351Z,19.00
2018-04-10T14:10:49.122Z,12.87
2018-04-10T14:13:18.899Z,14.87
2018-04-10T14:15:48.655Z,6.10
2018-04-10T14:18:18.424Z,13.97
2018-04-10T14:20:48.204Z,17.47
2018-04-10T14:23:18.003Z,9.07
2018-04-10T14:25:47.814Z,20.23
2018-04-10T14:28:17.564Z,9.20
2018-04-10T14:30:47.333Z,8.60
2018-04-10T14:33:17.595Z,4.80
2018-04-10T14:35:47.364Z,7.43
2018-04-10T14:38:17.120Z,6.03
2018-04-10T14:40:46.975Z,7.40
2018-04-10T14:43:17.287Z,6.70
2018-04-10T14:45:47.019Z,6.33
2018-04-10T14:48:16.785Z,3.70
2018-04-10T14:50:46.577Z,4.27
2018-04-10T14:53:16.661Z,18.33
2018-04-10T14:55:46.419Z,15.57
2018-04-10T14:58:16.185Z,23.33
2018-04-10T15:00:45.983Z,30.27
2018-04-10T15:03:15.744Z,16.60
2018-04-10T15:05:45.556Z,7.03
2018-04-10T15:08:15.273Z,11.57
2018-04-10T15:10:45.053Z,11.10
2018-04-10T15:13:14.888Z,5.80
2018-04-10T15:15:44.695Z,4.50
2018-04-10T15:18:14.459Z,4.23
2018-04-10T15:20:44.300Z,3.50
2018-04-10T15:23:14.515Z,4.00
2018-04-10T15:25:44.322Z,3.00
2018-04-10T15:28:14.131Z,2.53
2018-04-10T15:30:43.932Z,2.70
2018-04-10T15:33:13.700Z,5.43
2018-04-10T15:35:43.509Z,7.53
2018-04-10T15:38:13.268Z,5.40
2018-04-10T15:40:43.052Z,5.90
2018-04-10T15:43:12.873Z,3.63
2018-04-10T15:45:42.632Z,3.30
2018-04-10T15:48:12.395Z,4.33
2018-04-10T15:50:42.166Z,5.00
2018-04-10T15:53:11.940Z,6.03
2018-04-10T15:55:41.739Z,10.50
2018-04-10T15:58:11.499Z,6.37
2018-04-10T16:00:41.275Z,6.60
2018-04-10T16:03:11.395Z,8.10
2018-04-10T16:05:41.343Z,5.50
2018-04-10T16:08:11.125Z,7.50
2018-04-10T16:10:40.884Z,7.67
2018-04-10T16:13:10.751Z,6.23
2018-04-10T16:15:40.488Z,3.70
2018-04-10T16:18:10.276Z,3.03
2018-04-10T16:20:40.096Z,3.30
2018-04-10T16:23:10.100Z,3.17
2018-04-10T16:25:39.912Z,5.50
2018-04-10T16:28:09.676Z,4.97
2018-04-10T16:30:39.522Z,5.10
2018-04-10T16:33:09.279Z,5.20
2018-04-10T16:35:39.039Z,6.33
2018-04-10T16:38:08.828Z,8.03
2018-04-10T16:40:38.584Z,5.27
2018-04-10T16:43:08.796Z,3.13
2018-04-10T16:45:38.568Z,7.70
2018-04-10T16:48:08.383Z,4.57
2018-04-10T16:50:38.117Z,3.30
2018-04-10T16:53:07.882Z,3.07
2018-04-10T16:55:37.638Z,3.43
2018-04-10T16:58:07.459Z,1.93
2018-04-10T17:00:37.204Z,2.20
2018-04-10T17:03:07.066Z,2.50
2018-04-10T17:05:36.832Z,1.67
2018-04-10T17:08:06.622Z,2.07
2018-04-10T17:10:36.380Z,4.17
2018-04-10T17:13:06.300Z,2.30
2018-04-10T17:15:36.047Z,2.70
2018-04-10T17:18:05.829Z,2.33
2018-04-10T17:20:35.594Z,1.87
2018-04-10T17:23:05.785Z,5.53
2018-04-10T17:25:35.549Z,3.97
2018-04-10T17:28:05.311Z,2.87
2018-04-10T17:30:35.124Z,7.33
2018-04-10T17:33:04.880Z,3.40
2018-04-10T17:35:34.743Z,6.20
2018-04-10T17:38:04.491Z,3.00
2018-04-10T17:40:34.276Z,5.63
2018-04-10T17:43:04.382Z,6.57
2018-04-10T17:45:34.156Z,4.60
2018-04-10T17:48:03.949Z,2.60
2018-04-10T17:50:33.715Z,3.03
2018-04-10T17:53:03.537Z,3.53
2018-04-10T17:55:33.294Z,2.70
2018-04-10T17:58:03.077Z,1.90
2018-04-10T18:00:32.848Z,1.53
2018-04-10T18:03:02.612Z,1.43
2018-04-10T18:05:32.392Z,1.83
2018-04-10T18:08:02.134Z,4.40
2018-04-10T18:10:32.201Z,3.13
2018-04-10T18:13:01.962Z,8.43
2018-04-10T18:15:31.809Z,5.67
2018-04-10T18:18:01.563Z,3.17
2018-04-10T18:20:31.459Z,3.60
2018-04-10T18:23:01.244Z,2.50
2018-04-10T18:25:31.016Z,2.73
2018-04-10T18:28:00.848Z,2.13
2018-04-10T18:30:30.613Z,2.13
2018-04-10T18:33:00.416Z,2.43
2018-04-10T18:35:30.272Z,2.63
2018-04-10T18:38:00.032Z,2.20
2018-04-10T18:40:29.891Z,3.17
2018-04-10T18:42:59.683Z,2.00
2018-04-10T18:45:29.475Z,2.50
2018-04-10T18:47:59.359Z,3.13
2018-04-10T18:50:29.171Z,2.50
2018-04-10T18:52:58.923Z,2.20
2018-04-10T18:55:28.729Z,1.90
2018-04-10T18:57:58.540Z,1.70
2018-04-10T19:00:28.420Z,1.90
2018-04-10T19:02:58.264Z,2.57
2018-04-10T19:05:28.239Z,1.77
2018-04-10T19:07:58.130Z,2.10
2018-04-10T19:10:27.988Z,2.00
2018-04-10T19:12:57.833Z,2.50
2018-04-10T19:15:27.714Z,1.80
2018-04-10T19:17:57.581Z,1.77
2018-04-10T19:20:28.288Z,2.30
2018-04-10T19:22:58.157Z,1.90
2018-04-10T19:25:28.072Z,1.60
2018-04-10T19:27:57.993Z,1.80
2018-04-10T19:30:27.929Z,1.40
2018-04-10T19:32:57.817Z,2.30
2018-04-10T19:35:27.640Z,2.20
2018-04-10T19:37:57.546Z,2.60
2018-04-10T19:40:27.388Z,2.43
2018-04-10T19:42:58.032Z,2.13
2018-04-10T19:45:27.988Z,2.20
2018-04-10T19:47:57.913Z,2.20
2018-04-10T19:50:27.977Z,3.00
2018-04-10T19:52:57.858Z,3.40
2018-04-10T19:55:27.819Z,4.93
2018-04-10T19:57:57.709Z,3.93
2018-04-10T20:00:27.549Z,4.17
2018-04-10T20:02:57.427Z,5.33
2018-04-10T20:05:27.272Z,5.00
2018-04-10T20:07:57.047Z,4.53
2018-04-10T20:10:26.965Z,3.97
2018-04-10T20:12:56.756Z,3.20
2018-04-10T20:15:26.544Z,4.10
2018-04-10T20:17:56.405Z,3.60
2018-04-10T20:20:26.171Z,5.83
2018-04-10T20:22:56.053Z,8.37
2018-04-10T20:25:25.843Z,5.83
2018-04-10T20:27:55.623Z,3.10
2018-04-10T20:30:25.390Z,3.70
2018-04-10T20:32:55.520Z,2.90
2018-04-10T20:35:25.300Z,3.50
2018-04-10T20:37:55.110Z,3.10
2018-04-10T20:40:24.843Z,4.43
2018-04-10T20:42:54.620Z,2.93
2018-04-10T20:45:24.367Z,3.07
2018-04-10T20:47:54.135Z,3.53
2018-04-10T20:50:23.890Z,4.13
2018-04-10T20:52:53.664Z,6.13
2018-04-10T20:55:23.410Z,3.30
2018-04-10T20:57:53.175Z,3.10
2018-04-10T21:00:22.949Z,6.07
2018-04-10T21:02:52.745Z,7.30
2018-04-10T21:05:22.504Z,4.10
2018-04-10T21:07:52.263Z,4.10
2018-04-10T21:10:22.032Z,5.33
2018-04-10T21:12:51.801Z,3.77
2018-04-10T21:15:21.651Z,5.03
2018-04-10T21:17:51.421Z,3.73
2018-04-10T21:20:21.175Z,3.00
2018-04-10T21:22:50.987Z,5.30
2018-04-10T21:25:20.765Z,9.23
2018-04-10T21:27:50.529Z,12.97
2018-04-10T21:30:20.670Z,5.77
2018-04-10T21:32:50.455Z,6.40
2018-04-10T21:35:20.254Z,6.80
2018-04-10T21:37:50.003Z,6.07
2018-04-10T21:40:19.795Z,6.10
2018-04-10T21:42:55.306Z,5.97
2018-04-10T21:45:25.103Z,5.57
2018-04-10T21:47:54.877Z,5.27
2018-04-10T21:50:24.763Z,5.40
2018-04-10T21:52:54.547Z,14.50
2018-04-10T21:55:24.326Z,13.30
2018-04-10T21:57:54.189Z,12.00
2018-04-10T22:00:23.972Z,11.97
2018-04-10T22:02:53.758Z,5.70
2018-04-10T22:05:23.725Z,9.13
2018-04-10T22:07:53.494Z,17.67
2018-04-10T22:10:23.339Z,15.13
2018-04-10T22:12:53.156Z,8.53
2018-04-10T22:15:22.921Z,8.20
2018-04-10T22:17:52.709Z,9.90
2018-04-10T22:20:22.610Z,8.47
2018-04-10T22:22:52.349Z,8.53
2018-04-10T22:25:22.119Z,10.33
2018-04-10T22:27:51.878Z,6.13
2018-04-10T22:30:21.764Z,11.30
2018-04-10T22:32:51.529Z,9.73
2018-04-10T22:35:22.157Z,7.57
2018-04-10T22:37:51.912Z,8.17
2018-04-10T22:40:21.704Z,7.00
2018-04-10T22:42:51.467Z,10.60
2018-04-10T22:45:21.260Z,6.97
2018-04-10T22:47:51.026Z,6.07
2018-04-10T22:50:20.785Z,7.33
2018-04-10T22:52:50.533Z,5.30
2018-04-10T22:55:20.312Z,6.53
2018-04-10T22:57:50.072Z,5.70
2018-04-10T23:00:25.639Z,6.83
2018-04-10T23:02:55.409Z,5.40
2018-04-10T23:05:25.187Z,6.23
2018-04-10T23:07:54.961Z,5.40
2018-04-10T23:10:24.730Z,9.27
2018-04-10T23:12:54.556Z,7.43
2018-04-10T23:15:24.327Z,5.70
2018-04-10T23:17:54.103Z,6.00
2018-04-10T23:20:23.913Z,6.53
2018-04-10T23:22:53.680Z,4.30
2018-04-10T23:25:23.441Z,6.37
2018-04-10T23:27:53.229Z,5.33
2018-04-10T23:30:22.983Z,5.03
2018-04-10T23:32:52.772Z,5.93
2018-04-10T23:35:22.588Z,5.73
2018-04-10T23:37:52.373Z,6.63
2018-04-10T23:40:22.131Z,4.70
2018-04-10T23:42:51.914Z,5.03
2018-04-10T23:45:21.667Z,4.77
2018-04-10T23:47:51.447Z,5.23
2018-04-10T23:50:21.217Z,4.50
2018-04-10T23:52:51.064Z,5.17
2018-04-10T23:55:20.839Z,5.00
2018-04-10T23:57:50.628Z,5.17
